Time;durP1;ratioP1;P1;durP2;ratioP2;P2;SDS_P1;SDS_P2;PMS_P1;PMS_P2;Temp;Humidity;BMP_temperature;BMP_pressure;BME280_temperature;BME280_humidity;BME280_pressure;Samples;Min_cycle;Max_cycle;Signal;HPM_P1;HPM_P2
2022/10/13 00:02:24;;;;;;;2.30;1.05;;;;;;;11.79;100.00;101093.72;5038128;28;20032;-47
2022/10/13 00:04:49;;;;;;;4.03;1.08;;;;;;;11.85;100.00;101091.34;5042171;28;20087;-46
2022/10/13 00:07:15;;;;;;;5.72;0.85;;;;;;;11.89;100.00;101084.69;5035075;28;20037;-47
2022/10/13 00:09:40;;;;;;;2.10;0.40;;;;;;;11.88;100.00;101083.88;5032227;28;20049;-48
2022/10/13 00:12:05;;;;;;;1.42;0.90;;;;;;;11.86;100.00;101085.88;5039747;28;20051;-47
2022/10/13 00:14:31;;;;;;;6.40;0.75;;;;;;;11.84;100.00;101082.53;5040906;28;20038;-48
2022/10/13 00:16:56;;;;;;;4.70;0.50;;;;;;;11.80;100.00;101081.28;5041830;28;20107;-45
2022/10/13 00:19:22;;;;;;;4.32;0.55;;;;;;;11.78;100.00;101084.13;5040105;28;20378;-45
2022/10/13 00:21:47;;;;;;;2.97;0.55;;;;;;;11.76;100.00;101082.66;5038735;28;20078;-46
2022/10/13 00:24:12;;;;;;;0.35;0.17;;;;;;;11.74;100.00;101072.19;5040786;28;20017;-45
2022/10/13 00:26:38;;;;;;;4.90;1.48;;;;;;;11.69;100.00;101063.13;5039112;28;20044;-45
2022/10/13 00:29:03;;;;;;;3.95;0.98;;;;;;;11.62;100.00;101062.25;5038687;28;20037;-46
2022/10/13 00:31:30;;;;;;;3.47;1.17;;;;;;;11.57;100.00;101074.22;5034383;28;20033;-45
2022/10/13 00:34:00;;;;;;;3.70;0.57;;;;;;;11.55;100.00;101072.75;5034984;28;20083;-46
2022/10/13 00:36:27;;;;;;;1.65;0.80;;;;;;;11.52;100.00;101067.81;5031499;28;20549;-51
2022/10/13 00:38:55;;;;;;;8.60;2.30;;;;;;;11.50;100.00;101067.16;5035827;28;20536;-50
2022/10/13 00:41:20;;;;;;;1.42;0.52;;;;;;;11.48;100.00;101056.72;5032882;28;20362;-45
2022/10/13 00:44:01;;;;;;;1.00;0.40;;;;;;;11.48;100.00;101042.63;5035692;28;20036;-47
2022/10/13 00:46:36;;;;;;;0.95;0.30;;;;;;;11.43;100.00;101047.66;5032088;28;20033;-51
2022/10/13 00:49:15;;;;;;;1.52;0.20;;;;;;;11.36;100.00;101055.53;5039961;28;20032;-50
2022/10/13 00:51:45;;;;;;;2.25;0.55;;;;;;;11.31;100.00;101056.09;5037366;28;20044;-48
2022/10/13 00:54:14;;;;;;;1.77;0.65;;;;;;;11.32;100.00;101056.91;5039740;28;20036;-47
2022/10/13 00:56:41;;;;;;;4.07;0.20;;;;;;;11.34;100.00;101052.25;5031790;28;20025;-47
2022/10/13 00:59:22;;;;;;;2.13;1.10;;;;;;;11.34;100.00;101054.91;5036545;28;20036;-47
2022/10/13 01:01:48;;;;;;;0.98;0.25;;;;;;;11.27;100.00;101056.63;5038061;28;20403;-46
2022/10/13 01:04:16;;;;;;;1.35;0.35;;;;;;;11.25;100.00;101051.47;5033491;28;20025;-45
2022/10/13 01:06:42;;;;;;;1.27;0.57;;;;;;;11.21;100.00;101049.41;5025164;28;20045;-45
2022/10/13 01:09:07;;;;;;;2.22;0.98;;;;;;;11.13;100.00;101045.00;5040594;28;20021;-46
2022/10/13 01:12:08;;;;;;;2.83;2.58;;;;;;;11.13;100.00;101050.31;5030071;28;20025;-45
2022/10/13 01:14:50;;;;;;;1.07;0.30;;;;;;;11.08;100.00;101045.53;5031650;28;20106;-47
2022/10/13 01:17:35;;;;;;;2.40;0.85;;;;;;;11.02;100.00;101042.75;5031677;28;20112;-47
2022/10/13 01:20:22;;;;;;;2.53;0.45;;;;;;;11.00;100.00;101042.94;5031998;28;20033;-45
2022/10/13 01:23:22;;;;;;;2.08;0.10;;;;;;;10.98;100.00;101037.00;5028227;28;20033;-46
2022/10/13 01:26:23;;;;;;;0.52;0.10;;;;;;;10.98;100.00;101034.34;5030913;28;20230;-46
2022/10/13 01:29:16;;;;;;;3.80;0.38;;;;;;;10.96;100.00;101031.03;5030017;28;20128;-47
2022/10/13 01:32:27;;;;;;;1.73;0.30;;;;;;;10.90;100.00;101032.59;5029996;28;20061;-48
2022/10/13 01:34:56;;;;;;;5.47;0.65;;;;;;;10.90;100.00;101035.25;5018670;28;21106;-45
2022/10/13 01:37:33;;;;;;;2.10;0.95;;;;;;;10.93;100.00;101042.00;5034032;28;20029;-46
2022/10/13 01:40:37;;;;;;;2.47;0.17;;;;;;;10.94;100.00;101038.34;5030649;28;20359;-47
2022/10/13 01:43:09;;;;;;;0.85;0.13;;;;;;;10.95;100.00;101045.31;5033142;28;20494;-46
2022/10/13 01:45:41;;;;;;;0.43;0.10;;;;;;;10.97;100.00;101042.47;5039668;28;20037;-45
2022/10/13 01:48:09;;;;;;;3.70;0.30;;;;;;;10.94;100.00;101041.00;5040809;28;20075;-48
2022/10/13 01:50:37;;;;;;;0.98;0.32;;;;;;;10.91;100.00;101044.00;5034172;28;20478;-49
2022/10/13 01:53:04;;;;;;;1.73;0.40;;;;;;;10.88;100.00;101039.91;5029049;28;20288;-46
2022/10/13 01:55:30;;;;;;;1.33;0.73;;;;;;;10.83;100.00;101044.91;5031388;28;20107;-49
2022/10/13 01:57:55;;;;;;;1.52;0.10;;;;;;;10.77;100.00;101036.84;5036579;28;20025;-51
2022/10/13 02:00:22;;;;;;;0.75;0.30;;;;;;;10.75;100.00;101044.16;5040694;28;20028;-50
2022/10/13 02:03:14;;;;;;;0.63;0.60;;;;;;;10.77;100.00;101047.47;5037528;28;20051;-46
2022/10/13 02:06:01;;;;;;;0.35;0.10;;;;;;;10.79;100.00;101046.28;5038470;28;20036;-47
2022/10/13 02:08:43;;;;;;;0.55;0.30;;;;;;;10.79;100.00;101040.13;5037023;28;20029;-47
2022/10/13 02:11:19;;;;;;;0.60;0.40;;;;;;;10.75;100.00;101044.16;5035283;28;20029;-48
2022/10/13 02:13:50;;;;;;;2.53;0.43;;;;;;;10.74;100.00;101042.50;5026997;28;20044;-49
2022/10/13 02:16:19;;;;;;;2.17;0.20;;;;;;;10.74;100.00;101042.50;5033045;28;20117;-51
2022/10/13 02:18:45;;;;;;;0.45;0.20;;;;;;;10.72;100.00;101047.19;5035277;28;20029;-47
2022/10/13 02:21:10;;;;;;;2.45;0.80;;;;;;;10.70;100.00;101034.91;5039095;28;20040;-49
2022/10/13 02:23:36;;;;;;;1.67;1.05;;;;;;;10.69;100.00;101029.78;5040588;28;20086;-47
2022/10/13 02:26:01;;;;;;;1.95;0.20;;;;;;;10.68;100.00;101031.59;5039269;28;20072;-48
2022/10/13 02:28:28;;;;;;;0.50;0.30;;;;;;;10.67;100.00;101032.63;5031833;28;20486;-49
2022/10/13 02:30:53;;;;;;;2.42;0.50;;;;;;;10.68;100.00;101023.63;5039266;28;20506;-55
2022/10/13 02:33:19;;;;;;;1.38;0.30;;;;;;;10.67;100.00;101027.31;5040753;28;20041;-50
2022/10/13 02:35:44;;;;;;;3.38;0.88;;;;;;;10.64;100.00;101027.66;5033866;28;20538;-50
2022/10/13 02:38:10;;;;;;;3.80;0.50;;;;;;;10.64;100.00;101018.91;5038450;28;20114;-49
2022/10/13 02:40:36;;;;;;;0.50;0.32;;;;;;;10.66;100.00;101023.03;5033269;28;20392;-49
2022/10/13 02:43:01;;;;;;;1.48;0.10;;;;;;;10.65;100.00;101026.66;5037123;28;20400;-55
2022/10/13 02:45:27;;;;;;;1.50;0.43;;;;;;;10.63;100.00;101010.09;5033525;28;20111;-53
2022/10/13 02:47:52;;;;;;;1.10;0.63;;;;;;;10.61;100.00;101013.91;5039882;28;20159;-49
2022/10/13 02:50:18;;;;;;;0.93;0.40;;;;;;;10.59;100.00;101013.31;5041711;28;20065;-54
2022/10/13 02:52:43;;;;;;;1.80;0.70;;;;;;;10.58;100.00;101011.63;5039171;28;20060;-56
2022/10/13 02:55:09;;;;;;;2.60;0.38;;;;;;;10.58;100.00;101006.31;5042416;28;20060;-51
2022/10/13 02:57:34;;;;;;;2.47;0.32;;;;;;;10.59;100.00;101013.31;5040245;28;20067;-53
2022/10/13 03:00:00;;;;;;;2.13;0.10;;;;;;;10.58;100.00;101004.50;5033932;28;20017;-52
2022/10/13 03:02:26;;;;;;;6.95;1.17;;;;;;;10.57;100.00;101016.13;5041875;28;20040;-54
2022/10/13 03:04:52;;;;;;;1.60;0.50;;;;;;;10.54;100.00;101005.06;5034509;28;20087;-50
2022/10/13 03:07:17;;;;;;;0.63;0.10;;;;;;;10.52;100.00;101012.34;5035483;28;20025;-55
2022/10/13 03:09:43;;;;;;;5.15;0.98;;;;;;;10.48;100.00;101002.09;5043291;28;20060;-54
2022/10/13 03:12:08;;;;;;;0.15;0.10;;;;;;;10.46;100.00;101006.75;5043392;28;20086;-54
2022/10/13 03:14:33;;;;;;;0.60;0.40;;;;;;;10.45;100.00;101006.94;5042177;28;20033;-50
2022/10/13 03:17:00;;;;;;;0.28;0.28;;;;;;;10.46;100.00;101001.47;5043837;28;20037;-53
2022/10/13 03:19:25;;;;;;;1.95;0.20;;;;;;;10.50;100.00;101001.09;5042692;28;20038;-50
2022/10/13 03:21:50;;;;;;;4.63;0.40;;;;;;;10.47;100.00;100997.78;5037033;28;20061;-53
2022/10/13 03:24:16;;;;;;;1.13;0.38;;;;;;;10.46;100.00;100990.03;5038447;28;20065;-55
2022/10/13 03:26:41;;;;;;;1.40;0.40;;;;;;;10.46;100.00;100990.84;5045737;28;20066;-51
2022/10/13 03:29:06;;;;;;;5.25;1.35;;;;;;;10.45;100.00;100994.50;5043163;28;20072;-50
2022/10/13 03:31:32;;;;;;;0.57;0.57;;;;;;;10.45;100.00;100985.72;5036333;28;20049;-53
2022/10/13 03:33:57;;;;;;;1.95;0.30;;;;;;;10.42;100.00;100991.38;5046697;28;20500;-52
2022/10/13 03:36:22;;;;;;;2.35;0.30;;;;;;;10.40;100.00;100986.28;5037490;28;20135;-53
2022/10/13 03:38:48;;;;;;;0.17;0.13;;;;;;;10.38;100.00;100990.91;5032726;28;20025;-55
2022/10/13 03:41:16;;;;;;;2.15;0.70;;;;;;;10.41;100.00;100993.22;5034827;28;20120;-52
2022/10/13 03:43:43;;;;;;;0.63;0.50;;;;;;;10.39;100.00;100991.75;5045612;28;20039;-51
2022/10/13 03:46:11;;;;;;;0.60;0.15;;;;;;;10.37;100.00;100988.44;5043503;28;20036;-50
2022/10/13 03:48:37;;;;;;;0.20;0.20;;;;;;;10.35;100.00;100985.13;5043079;28;20395;-55
2022/10/13 03:51:10;;;;;;;1.08;0.10;;;;;;;10.36;100.00;100984.16;5037527;28;20062;-50
2022/10/13 03:53:36;;;;;;;2.20;0.30;;;;;;;10.32;100.00;100978.34;5046488;28;20036;-51
2022/10/13 03:56:01;;;;;;;1.95;0.35;;;;;;;10.32;100.00;100970.41;5039168;28;20135;-55
2022/10/13 03:58:30;;;;;;;1.02;0.40;;;;;;;10.32;100.00;100964.28;5039881;28;20033;-51
2022/10/13 04:01:00;;;;;;;0.45;0.45;;;;;;;10.29;100.00;100968.13;5040552;28;20029;-57
2022/10/13 04:03:26;;;;;;;0.97;0.70;;;;;;;10.29;100.00;100962.81;5041930;28;20044;-56
2022/10/13 04:05:51;;;;;;;0.40;0.40;;;;;;;10.26;100.00;100960.50;5036474;28;20486;-53
2022/10/13 04:08:16;;;;;;;1.33;0.40;;;;;;;10.22;100.00;100954.72;5036919;28;20043;-51
2022/10/13 04:10:42;;;;;;;1.50;0.40;;;;;;;10.19;100.00;100947.09;5037097;28;20494;-56
2022/10/13 04:13:07;;;;;;;1.02;0.65;;;;;;;10.15;100.00;100945.84;5044714;28;20120;-56
2022/10/13 04:15:39;;;;;;;0.40;0.22;;;;;;;10.13;100.00;100947.81;5042507;28;20068;-51
2022/10/13 04:18:07;;;;;;;0.65;0.52;;;;;;;10.13;100.00;100963.72;5035321;28;20440;-55
2022/10/13 04:20:38;;;;;;;1.75;0.35;;;;;;;10.21;100.00;100958.38;5045267;28;20034;-54
2022/10/13 04:23:04;;;;;;;1.08;0.50;;;;;;;10.23;100.00;100952.91;5041360;28;20025;-56
2022/10/13 04:25:30;;;;;;;0.45;0.45;;;;;;;10.21;100.00;100950.41;5050374;28;20036;-55
2022/10/13 04:27:55;;;;;;;2.50;0.22;;;;;;;10.17;100.00;100940.34;5048319;28;20526;-52
2022/10/13 04:30:20;;;;;;;1.75;0.43;;;;;;;10.13;100.00;100937.22;5039584;28;20040;-52
2022/10/13 04:32:46;;;;;;;1.10;0.20;;;;;;;10.12;100.00;100932.09;5041436;28;20068;-52
2022/10/13 04:35:11;;;;;;;0.32;0.28;;;;;;;10.15;100.00;100942.38;5039696;28;20029;-53
2022/10/13 04:37:37;;;;;;;1.65;0.40;;;;;;;10.19;100.00;100939.16;5037932;28;20747;-51
2022/10/13 04:40:02;;;;;;;1.20;0.68;;;;;;;10.19;100.00;100949.75;5037970;28;20034;-53
2022/10/13 04:42:28;;;;;;;0.98;0.57;;;;;;;10.18;100.00;100945.47;5037784;28;20025;-54
2022/10/13 04:44:53;;;;;;;5.47;0.57;;;;;;;10.23;100.00;100947.59;5038291;28;20075;-50
2022/10/13 04:47:18;;;;;;;0.77;0.55;;;;;;;10.24;100.00;100941.28;5039117;28;20028;-53
2022/10/13 04:49:44;;;;;;;1.20;0.52;;;;;;;10.23;100.00;100937.00;5045261;28;20029;-52
2022/10/13 04:52:09;;;;;;;0.60;0.38;;;;;;;10.22;100.00;100930.88;5046325;28;20032;-50
2022/10/13 04:54:34;;;;;;;0.75;0.68;;;;;;;10.22;100.00;100933.53;5041427;28;20069;-50
2022/10/13 04:57:00;;;;;;;1.65;0.73;;;;;;;10.21;100.00;100934.50;5036565;28;20045;-55
2022/10/13 04:59:25;;;;;;;1.45;1.00;;;;;;;10.21;100.00;100937.16;5033819;28;20445;-54
2022/10/13 05:01:50;;;;;;;1.48;0.52;;;;;;;10.21;100.00;100934.50;5046236;28;20501;-56
2022/10/13 05:04:16;;;;;;;1.33;1.15;;;;;;;10.21;100.00;100937.16;5043804;28;20029;-52
2022/10/13 05:06:41;;;;;;;0.32;0.20;;;;;;;10.18;100.00;100932.22;5035674;28;20438;-55
2022/10/13 05:09:12;;;;;;;0.50;0.43;;;;;;;10.16;100.00;100934.22;5043754;28;20072;-55
2022/10/13 05:11:38;;;;;;;1.80;0.75;;;;;;;10.12;100.00;100929.44;5030158;28;20081;-56
2022/10/13 05:14:03;;;;;;;0.80;0.60;;;;;;;10.12;100.00;100930.28;5036172;28;20072;-55
2022/10/13 05:16:30;;;;;;;2.75;0.63;;;;;;;10.07;100.00;100935.28;5042718;28;20033;-55
2022/10/13 05:18:55;;;;;;;0.85;0.70;;;;;;;10.02;100.00;100933.16;5041821;28;20029;-55
2022/10/13 05:21:26;;;;;;;1.70;0.80;;;;;;;10.03;100.00;100929.50;5041203;28;20029;-54
2022/10/13 05:23:55;;;;;;;2.73;1.40;;;;;;;10.00;100.00;100932.50;5042200;28;20040;-51
2022/10/13 05:26:26;;;;;;;0.77;0.55;;;;;;;9.98;100.00;100936.34;5031882;28;20304;-53
2022/10/13 05:28:51;;;;;;;;;;;;;;;9.98;100.00;100939.81;5036317;28;20053;-56
2022/10/13 05:31:20;;;;;;;0.30;0.30;;;;;;;9.94;100.00;100943.81;5035392;28;19917;-55
2022/10/13 05:33:46;;;;;;;0.20;0.20;;;;;;;9.92;100.00;100942.34;5039084;28;20036;-55
2022/10/13 05:36:15;;;;;;;0.65;0.60;;;;;;;9.94;100.00;100945.63;5037145;28;20044;-52
2022/10/13 05:38:41;;;;;;;2.65;1.05;;;;;;;9.94;100.00;100940.31;5039693;28;20029;-52
2022/10/13 05:41:09;;;;;;;1.25;0.40;;;;;;;9.98;100.00;100949.59;5033591;28;20033;-53
2022/10/13 05:43:36;;;;;;;2.80;0.73;;;;;;;9.98;100.00;100952.22;5035333;28;20017;-51
2022/10/13 05:46:02;;;;;;;2.42;0.68;;;;;;;9.98;100.00;100941.63;5033479;28;20037;-51
2022/10/13 05:48:28;;;;;;;0.93;0.60;;;;;;;9.98;100.00;100947.75;5040703;28;20028;-51
2022/10/13 05:50:56;;;;;;;5.65;0.93;;;;;;;10.00;100.00;100947.59;5030386;28;20179;-52
2022/10/13 05:53:24;;;;;;;5.60;1.27;;;;;;;10.02;100.00;100956.19;5036505;28;20091;-56
2022/10/13 05:55:51;;;;;;;2.08;1.88;;;;;;;10.03;100.00;100960.47;5037167;28;20492;-51
2022/10/13 05:58:17;;;;;;;2.67;1.15;;;;;;;10.05;100.00;100958.50;5042543;28;20407;-52
2022/10/13 06:00:43;;;;;;;5.40;2.03;;;;;;;10.07;100.00;100961.78;5036484;28;20465;-54
2022/10/13 06:03:16;;;;;;;4.82;2.15;;;;;;;10.18;100.00;100963.19;5035854;28;20028;-53
2022/10/13 06:05:46;;;;;;;8.88;3.00;;;;;;;10.23;100.00;100966.16;5036557;28;20040;-53
2022/10/13 06:08:13;;;;;;;9.85;3.17;;;;;;;10.28;100.00;100961.19;5032253;28;20037;-51
2022/10/13 06:10:40;;;;;;;17.90;2.85;;;;;;;10.32;100.00;100964.28;5034348;28;20029;-53
2022/10/13 06:13:05;;;;;;;3.50;1.95;;;;;;;10.34;100.00;100962.28;5036060;28;20387;-52
2022/10/13 06:15:30;;;;;;;9.68;3.97;;;;;;;10.35;100.00;100962.13;5037174;28;20034;-54
2022/10/13 06:17:56;;;;;;;5.50;3.70;;;;;;;10.40;100.00;100959.75;5034406;28;20030;-52
2022/10/13 06:20:21;;;;;;;3.97;2.90;;;;;;;10.43;100.00;100961.22;5040292;28;20165;-53
2022/10/13 06:22:49;;;;;;;6.63;3.15;;;;;;;10.45;100.00;100951.25;5038035;28;20029;-51
2022/10/13 06:25:14;;;;;;;8.63;2.78;;;;;;;10.45;100.00;100951.25;5040495;28;20060;-55
2022/10/13 06:27:40;;;;;;;3.90;2.45;;;;;;;10.46;100.00;100951.09;5045210;28;20042;-50
2022/10/13 06:30:06;;;;;;;3.05;2.72;;;;;;;10.45;100.00;100946.78;5044023;28;20037;-52
2022/10/13 06:32:31;;;;;;;5.65;2.67;;;;;;;10.46;100.00;100939.66;5039294;28;20030;-52
2022/10/13 06:34:56;;;;;;;2.72;2.47;;;;;;;10.46;100.00;100935.19;5028302;28;20032;-54
2022/10/13 06:37:22;;;;;;;4.25;2.83;;;;;;;10.46;100.00;100939.66;5036961;28;20041;-52
2022/10/13 06:39:47;;;;;;;5.25;3.20;;;;;;;10.46;100.00;100945.78;5034876;28;20168;-51
2022/10/13 06:42:12;;;;;;;4.32;3.38;;;;;;;10.50;100.00;100934.81;5039088;28;20037;-53
2022/10/13 06:44:38;;;;;;;4.63;2.58;;;;;;;10.51;100.00;100932.00;5033403;28;20043;-51
2022/10/13 06:47:04;;;;;;;4.68;2.80;;;;;;;10.51;100.00;100932.00;5033062;28;20029;-50
2022/10/13 06:49:29;;;;;;;4.80;3.17;;;;;;;10.53;100.00;100929.16;5041444;28;20021;-52
2022/10/13 06:51:54;;;;;;;6.65;3.10;;;;;;;10.54;100.00;100928.16;5038927;28;20028;-52
2022/10/13 06:54:20;;;;;;;5.13;2.72;;;;;;;10.56;100.00;100934.09;5031180;28;20034;-50
2022/10/13 06:56:45;;;;;;;4.28;2.90;;;;;;;10.56;100.00;100929.63;5039753;28;20022;-50
2022/10/13 06:59:10;;;;;;;5.20;3.08;;;;;;;10.60;100.00;100928.25;5039187;28;20378;-54
2022/10/13 07:01:37;;;;;;;2.60;2.33;;;;;;;10.63;100.00;100935.84;5036529;28;20033;-53
2022/10/13 07:04:02;;;;;;;5.53;3.10;;;;;;;10.64;100.00;100929.53;5030118;28;20025;-55
2022/10/13 07:06:27;;;;;;;6.32;3.67;;;;;;;10.68;100.00;100932.66;5036858;28;20175;-52
2022/10/13 07:08:53;;;;;;;6.22;2.85;;;;;;;10.70;100.00;100934.13;5034420;28;20021;-52
2022/10/13 07:11:18;;;;;;;12.10;4.05;;;;;;;10.73;100.00;100937.41;5030390;28;20310;-54
2022/10/13 07:13:44;;;;;;;5.13;3.35;;;;;;;10.78;100.00;100937.69;5044433;28;20470;-56
2022/10/13 07:16:09;;;;;;;12.30;3.28;;;;;;;10.78;100.00;100937.69;5030931;28;20089;-52
2022/10/13 07:18:35;;;;;;;2.95;2.63;;;;;;;10.75;100.00;100948.69;5033461;28;21602;-52
2022/10/13 07:21:02;;;;;;;4.78;2.30;;;;;;;10.74;100.00;100947.88;5041989;28;20124;-55
2022/10/13 07:23:28;;;;;;;7.13;2.50;;;;;;;10.77;100.00;100947.50;5041856;28;20029;-52
2022/10/13 07:25:56;;;;;;;5.22;3.63;;;;;;;10.73;100.00;100945.38;5028091;28;20386;-55
2022/10/13 07:28:23;;;;;;;4.85;2.83;;;;;;;10.76;100.00;100947.66;5041697;28;20099;-53
2022/10/13 07:30:48;;;;;;;4.60;3.22;;;;;;;10.78;100.00;100948.31;5043863;28;20033;-56
2022/10/13 07:33:13;;;;;;;4.88;3.65;;;;;;;10.81;100.00;100963.84;5036756;28;20483;-53
2022/10/13 07:35:39;;;;;;;3.92;3.13;;;;;;;10.83;100.00;100957.38;5037603;28;20511;-53
2022/10/13 07:38:06;;;;;;;5.68;4.10;;;;;;;10.87;100.00;100960.50;5045549;28;20025;-56
2022/10/13 07:40:31;;;;;;;5.72;2.95;;;;;;;10.89;100.00;100951.38;5038363;28;20505;-52
2022/10/13 07:42:56;;;;;;;3.95;2.47;;;;;;;10.95;100.00;100955.09;5038013;28;20025;-54
2022/10/13 07:45:22;;;;;;;5.80;3.50;;;;;;;10.98;100.00;100960.03;5050541;28;20032;-53
2022/10/13 07:47:47;;;;;;;4.30;2.83;;;;;;;11.04;100.00;100948.69;5032206;28;20029;-50
2022/10/13 07:50:13;;;;;;;3.08;2.13;;;;;;;11.13;100.00;100947.63;5048381;28;20069;-56
2022/10/13 07:52:38;;;;;;;7.03;4.00;;;;;;;11.17;100.00;100955.19;5041375;28;20029;-56
2022/10/13 07:55:04;;;;;;;5.28;3.20;;;;;;;11.17;100.00;100952.53;5038543;28;20106;-55
2022/10/13 07:57:30;;;;;;;3.58;3.28;;;;;;;11.13;100.00;100963.53;5041684;28;20043;-54
2022/10/13 07:59:55;;;;;;;5.45;1.70;;;;;;;11.11;100.00;100962.06;5039144;28;20025;-54
2022/10/13 08:02:20;;;;;;;3.42;2.38;;;;;;;11.09;100.00;100956.13;5038579;28;20098;-50
2022/10/13 08:04:46;;;;;;;5.38;2.75;;;;;;;11.13;100.00;100963.53;5034284;28;20037;-53
2022/10/13 08:07:11;;;;;;;6.05;3.25;;;;;;;11.15;100.00;100968.63;5033726;28;20447;-53
2022/10/13 08:09:37;;;;;;;5.13;3.30;;;;;;;11.09;100.00;100970.19;5039097;28;20068;-53
2022/10/13 08:12:03;;;;;;;7.40;3.80;;;;;;;11.05;100.00;100970.78;5045925;28;20033;-51
2022/10/13 08:14:29;;;;;;;4.03;2.78;;;;;;;11.08;100.00;100976.53;5032648;28;20029;-56
2022/10/13 08:16:56;;;;;;;6.80;2.55;;;;;;;11.20;100.00;100974.22;5041390;28;20037;-57
2022/10/13 08:19:22;;;;;;;3.40;3.10;;;;;;;11.31;100.00;100978.28;5037199;28;20068;-56
2022/10/13 08:21:48;;;;;;;2.38;2.10;;;;;;;11.32;100.00;100980.72;5048055;28;20033;-58
2022/10/13 08:24:16;;;;;;;2.47;1.83;;;;;;;11.33;100.00;100981.56;5041709;28;20028;-55
2022/10/13 08:26:43;;;;;;;4.43;2.17;;;;;;;11.37;100.00;100984.69;5034323;28;20048;-50
2022/10/13 08:29:09;;;;;;;4.03;2.72;;;;;;;11.43;100.00;100987.41;5042148;28;20036;-55
2022/10/13 08:31:34;;;;;;;4.32;2.00;;;;;;;11.46;100.00;100979.09;5041197;28;20104;-53
2022/10/13 08:34:00;;;;;;;3.55;2.22;;;;;;;11.50;100.00;100980.34;5037959;28;20172;-57
2022/10/13 08:36:25;;;;;;;7.03;2.53;;;;;;;11.52;100.00;100978.34;5041921;28;20116;-57
2022/10/13 08:38:52;;;;;;;2.42;2.03;;;;;;;11.54;100.00;100984.31;5040632;28;20494;-55
2022/10/13 08:41:44;;;;;;;4.75;2.78;;;;;;;11.61;100.00;100981.72;5038199;28;20494;-53
2022/10/13 08:44:21;;;;;;;2.28;1.63;;;;;;;11.70;100.00;100966.50;5035392;28;20141;-52
2022/10/13 08:47:02;;;;;;;3.92;2.00;;;;;;;11.80;100.00;100969.69;5036015;28;20042;-53
2022/10/13 08:49:29;;;;;;;2.55;1.80;;;;;;;11.86;100.00;100960.16;5041479;28;20371;-54
2022/10/13 08:51:57;;;;;;;4.15;2.15;;;;;;;11.95;100.00;100959.88;5043758;28;20060;-53
2022/10/13 08:54:24;;;;;;;3.50;2.22;;;;;;;12.03;100.00;100960.75;5035193;28;20656;-54
2022/10/13 08:56:51;;;;;;;5.57;1.98;;;;;;;12.04;100.00;100949.13;5032195;28;20060;-57
2022/10/13 08:59:17;;;;;;;2.05;1.70;;;;;;;12.05;100.00;100950.75;5035294;28;20029;-55
2022/10/13 09:01:50;;;;;;;2.72;1.73;;;;;;;12.08;100.00;100948.56;5036492;28;20494;-54
2022/10/13 09:04:29;;;;;;;5.57;2.30;;;;;;;12.08;100.00;100943.25;5032878;28;20040;-57
2022/10/13 09:07:05;;;;;;;4.30;2.08;;;;;;;12.20;100.00;100948.88;5036656;28;20029;-54
2022/10/13 09:09:31;;;;;;;2.35;1.25;;;;;;;12.30;100.00;100957.34;5032803;28;20032;-56
2022/10/13 09:11:57;;;;;;;2.30;1.38;;;;;;;12.42;100.00;100960.34;5029922;28;20116;-55
2022/10/13 09:14:28;;;;;;;2.25;1.30;;;;;;;12.52;100.00;100962.63;5039025;28;20120;-51
2022/10/13 09:16:56;;;;;;;5.90;2.40;;;;;;;12.56;100.00;100962.06;5036849;28;20483;-53
2022/10/13 09:19:35;;;;;;;4.30;1.50;;;;;;;12.62;100.00;100949.84;5037606;28;20116;-53
2022/10/13 09:22:26;;;;;;;5.75;1.65;;;;;;;12.76;100.00;100948.94;5041578;28;20060;-55
2022/10/13 09:25:10;;;;;;;3.40;2.72;;;;;;;12.88;100.00;100951.88;5039829;28;20033;-56
2022/10/13 09:27:50;;;;;;;6.43;3.33;;;;;;;12.94;100.00;100955.59;5029702;28;20068;-51
2022/10/13 09:30:26;;;;;;;3.30;1.42;;;;;;;13.05;100.00;100960.38;5036187;28;20082;-52
2022/10/13 09:33:07;;;;;;;2.63;2.10;;;;;;;13.13;100.00;100956.75;5038076;28;20443;-53
2022/10/13 09:35:34;;;;;;;3.00;1.52;;;;;;;13.13;100.00;100964.72;5034200;28;20450;-55
2022/10/13 09:38:25;;;;;;;3.03;1.23;;;;;;;13.07;100.00;100953.84;5047341;28;20051;-54
2022/10/13 09:41:03;;;;;;;;;;;;;;;13.09;100.00;100945.66;5031865;28;20128;-50
2022/10/13 09:43:57;;;;;;;3.80;2.22;;;;;;;13.16;100.00;100933.19;5038878;28;19917;-51
2022/10/13 09:46:32;;;;;;;1.10;1.00;;;;;;;13.17;100.00;100929.53;5039089;28;20513;-50
2022/10/13 09:49:05;;;;;;;2.47;1.10;;;;;;;13.12;100.00;100931.97;5032388;28;20029;-53
2022/10/13 09:51:39;;;;;;;3.13;1.00;;;;;;;13.11;100.00;100932.97;5037628;28;20036;-55
2022/10/13 09:54:23;;;;;;;1.73;1.13;;;;;;;13.08;100.00;100917.38;5044420;28;20020;-52
2022/10/13 09:56:54;;;;;;;0.80;0.50;;;;;;;13.04;100.00;100921.47;5032603;28;20037;-54
2022/10/13 09:59:32;;;;;;;3.78;1.75;;;;;;;13.15;100.00;100926.25;5034344;28;20526;-54
2022/10/13 10:02:01;;;;;;;1.88;1.25;;;;;;;13.16;100.00;100927.88;5035830;28;20179;-55
2022/10/13 10:04:41;;;;;;;1.70;0.88;;;;;;;13.16;100.00;100935.03;5039091;28;20032;-51
2022/10/13 10:07:20;;;;;;;2.15;1.23;;;;;;;13.18;100.00;100935.66;5034062;28;20041;-51
2022/10/13 10:09:51;;;;;;;2.25;1.15;;;;;;;13.22;100.00;100948.41;5041357;28;20112;-50
2022/10/13 10:12:19;;;;;;;;;;;;;;;13.27;100.00;100951.31;5030455;28;20033;-56
2022/10/13 10:14:47;;;;;;;1.38;0.70;;;;;;;13.34;100.00;100945.19;5042183;28;19917;-52
2022/10/13 10:17:21;;;;;;;0.73;0.68;;;;;;;13.34;100.00;100946.00;5035964;28;20037;-51
2022/10/13 10:19:55;;;;;;;4.03;1.50;;;;;;;13.38;100.00;100952.59;5041757;28;20040;-53
2022/10/13 10:22:46;;;;;;;2.05;1.17;;;;;;;13.38;100.00;100949.13;5042489;28;20530;-52
2022/10/13 10:25:24;;;;;;;6.50;1.37;;;;;;;13.46;100.00;100946.28;5037925;28;20121;-49
2022/10/13 10:28:26;;;;;;;3.95;1.10;;;;;;;13.54;100.00;100943.44;5036375;28;20778;-54
2022/10/13 10:31:12;;;;;;;16.58;3.08;;;;;;;13.56;100.00;100935.28;5031635;28;20140;-51
2022/10/13 10:33:56;;;;;;;18.67;3.38;;;;;;;13.52;100.00;100932.97;5040320;28;20029;-50
2022/10/13 10:36:39;;;;;;;16.52;2.65;;;;;;;13.56;100.00;100927.28;5046607;28;20025;-49
2022/10/13 10:39:20;;;;;;;4.35;1.20;;;;;;;13.64;100.00;100925.25;5038783;28;20049;-50
2022/10/13 10:41:59;;;;;;;2.47;0.82;;;;;;;13.72;100.00;100927.72;5030467;28;20038;-53
2022/10/13 10:44:40;;;;;;;3.63;1.05;;;;;;;13.95;100.00;100937.22;5033860;28;20029;-54
2022/10/13 10:47:15;;;;;;;4.88;0.80;;;;;;;14.25;100.00;100929.69;5029560;28;20037;-52
2022/10/13 10:49:41;;;;;;;3.33;1.33;;;;;;;14.35;100.00;100922.09;5043407;28;20021;-50
2022/10/13 10:52:15;;;;;;;3.08;0.85;;;;;;;14.42;100.00;100916.75;5045634;28;20025;-52
2022/10/13 10:55:09;;;;;;;3.70;1.23;;;;;;;14.58;100.00;100911.00;5041242;28;20052;-51
2022/10/13 10:57:58;;;;;;;3.30;1.25;;;;;;;15.16;100.00;100902.28;5045919;28;20037;-51
2022/10/13 11:00:23;;;;;;;2.88;1.08;;;;;;;15.56;100.00;100898.59;5032936;28;20037;-51
2022/10/13 11:03:04;;;;;;;3.40;0.88;;;;;;;15.79;100.00;100890.06;5034116;28;20040;-51
2022/10/13 11:06:02;;;;;;;4.70;1.00;;;;;;;15.99;100.00;100873.91;5037340;28;20367;-54
2022/10/13 11:08:29;;;;;;;1.75;0.80;;;;;;;16.33;100.00;100872.59;5034583;28;20029;-51
2022/10/13 11:11:19;;;;;;;2.15;0.77;;;;;;;16.71;100.00;100874.28;5040076;28;20025;-54
2022/10/13 11:14:21;;;;;;;1.50;0.35;;;;;;;16.98;100.00;100859.59;5048447;28;20025;-52
2022/10/13 11:17:05;;;;;;;3.95;1.20;;;;;;;17.05;100.00;100845.31;5040867;28;20041;-54
2022/10/13 11:19:38;;;;;;;2.88;0.65;;;;;;;17.25;100.00;100847.75;5039870;28;20559;-54
2022/10/13 11:22:04;;;;;;;1.83;0.50;;;;;;;17.38;100.00;100834.97;5037519;28;20033;-49
2022/10/13 11:24:32;;;;;;;1.95;0.73;;;;;;;17.25;100.00;100839.72;5045228;28;20029;-52
2022/10/13 11:27:06;;;;;;;2.30;0.50;;;;;;;16.82;100.00;100854.03;5041393;28;20036;-47
2022/10/13 11:29:53;;;;;;;3.60;0.20;;;;;;;16.60;100.00;100862.47;5043640;28;20033;-51
2022/10/13 11:32:44;;;;;;;3.63;1.10;;;;;;;16.22;100.00;100842.03;5040435;28;20044;-48